Clear Lake, IA (50428)

6:14 PM CST on February 22, 2017 (GMT -0600)
West Ventura | | Change Station
Active Advisory: Winter Storm Watch

Elev 1240 ft 43.12 °N, 93.48 °W | Updated 13 seconds ago

Clear
Clear
54.0 °F
Feels Like 54.0 °F
N
2.0
Wind Variable Wind from WNW
Gusts 3.0 mph

Today
High -- | Low -- °F
--% Chance of Precip.
Yesterday
High -- | Low -- °F
Precip. -- in
Pressure 29.62 in
Visibility 10.0 miles
Clouds Clear
Dew Point 50 °F
Humidity 85%
Rainfall 0.00 in
Snow Depth Not available.
7:00 AM 5:54 PM
Waning Crescent, 14% visible
METAR KMCW 222353Z AUTO 26007KT 10SM CLR 11/07 A2962 RMK AO2 SLP029 T01110067 10156 20111 51009
Pressure 29.62 in
Visibility 10.0 miles
Clouds Clear
Dew Point 50 °F
Humidity 85%
Rainfall 0.00 in
Snow Depth Not available.
7:00 AM 5:54 PM
Waning Crescent, 14% visible
METAR KMCW 222353Z AUTO 26007KT 10SM CLR 11/07 A2962 RMK AO2 SLP029 T01110067 10156 20111 51009

Get Your Daily Forecast Email!

Thanks for signing up!

Be on the lookout for a verification email in your inbox.

You'll start receiving the daily forecast at 8 AM.

×

10-Day Weather Forecast

Almanac

Astronomy

Feb. 22, 2017 Rise Set
Actual Time
Civil Twilight
Nautical Twilight
Astronomical Twilight
Moon
Length of Visible Light
Length of Day
Tomorrow will be .
, % of the Moon is Illuminated

Today's Extremes

State Highs State Lows

Community

WunderPhotos

Upload Photos

1,962,540 photos uploaded!

WunderBlog® & News

Nearby

Air Quality

  Air Quality AQ Index Pollutant
Not available.

Snow Depth

Station Depth Elevation

Earthquake Activity

City Distance Mag. Time & Date
Minimum magnitude displayed is 2.5.

Coastal Water Temperatures

Place Temperature

Stations

Nearby Weather Stations

Station Location Temp. Windchill Dew Point Humidity Wind Precip. Elev Updated Type
                   

Watches & Warnings

Winter Storm Watch
Issued: 3:42 PM CST Feb. 22, 2017 – National Weather Service

... Winter Storm Watch in effect from Friday morning through
Friday evening...

The National Weather Service in Des Moines has issued a Winter
Storm Watch, which is in effect from Friday morning through
Friday evening.

* Timing... rain will transition to snow Thursday night into Friday
morning with winds increasing through the day on Friday. The
precipitation and wind are expected to persist into Saturday
morning.


* Storm total snow accumulations... 4 to 7 inches across northern
Iowa, with locally higher amounts possible.

* Winds/visibility... winds becoming north to northwesterly at 20
to 30 mph with gusts over 40 mph. Visibility will be reduced to
one half mile or less during periods of heavier snow and wind.

* Impacts... travel may be severely impacted as blowing and
drifting snow reduce visibility Friday into Saturday morning.

Precautionary/preparedness actions...

A Winter Storm Watch means there is a potential for significant
snow, sleet, or ice accumulations that may impact travel.
Continue to monitor the latest forecasts.